createdAt,value
2022-08-09T07:27:10.706Z,28.78
2022-08-09T07:29:01.510Z,26.95
2022-08-09T07:30:14.941Z,26.78
2022-08-09T07:31:23.280Z,27.47
2022-08-09T07:32:32.723Z,27.17
2022-08-09T07:33:52.321Z,27.85
2022-08-09T07:35:08.337Z,26.76
2022-08-09T07:36:13.371Z,27.79
2022-08-09T07:37:15.663Z,28.29
2022-08-09T07:38:17.875Z,28.15
2022-08-09T07:39:40.709Z,28.15
2022-08-09T07:41:00.766Z,28.38
2022-08-09T07:42:21.119Z,29.6
2022-08-09T07:43:41.283Z,29.7
2022-08-09T07:45:01.696Z,29.93
2022-08-09T07:46:43.467Z,29.16
2022-08-09T07:48:01.017Z,29.9
2022-08-09T07:49:08.238Z,29.58
2022-08-09T07:50:17.096Z,29.76
2022-08-09T07:52:03.980Z,29.28
2022-08-09T07:53:36.368Z,28.67
2022-08-09T07:55:13.324Z,29.95
2022-08-09T07:56:34.951Z,30.72
2022-08-09T07:57:53.584Z,30.7
2022-08-09T07:59:15.848Z,30.46
2022-08-09T08:01:11.059Z,30.36
2022-08-09T08:02:25.994Z,30.6
2022-08-09T08:03:44.553Z,30.77
2022-08-09T08:04:57.329Z,29.66
2022-08-09T08:06:00.384Z,29.08
2022-08-09T08:07:09.667Z,29.89
2022-08-09T08:10:14.235Z,29.64
2022-08-09T08:12:08.956Z,31.05
2022-08-09T08:13:56.437Z,30.77
2022-08-09T09:29:19.000Z,25.65
2022-08-09T09:30:40.305Z,26.42
2022-08-09T09:32:04.233Z,27.28
2022-08-09T09:33:18.822Z,28.01
2022-08-09T09:34:21.855Z,28.56
2022-08-09T09:35:30.187Z,28.81
2022-08-09T09:36:46.882Z,28.87
2022-08-09T09:37:56.291Z,29.19
2022-08-09T09:38:59.672Z,28.89
2022-08-09T09:40:02.800Z,28.77
2022-08-09T09:41:05.342Z,29.19
2022-08-09T09:42:12.128Z,29.64
2022-08-09T09:43:13.960Z,29.99
2022-08-09T09:44:15.695Z,29.97
2022-08-09T09:45:33.089Z,30.21
2022-08-09T09:47:42.207Z,29.78
2022-08-09T09:49:00.988Z,29.73
2022-08-09T09:50:13.510Z,29.43
2022-08-09T09:51:26.235Z,29.9
2022-08-09T09:52:41.811Z,30.11
2022-08-09T09:54:01.245Z,30.58
2022-08-09T09:55:24.555Z,30.91
2022-08-09T09:56:34.835Z,30.87
2022-08-09T09:58:02.155Z,31.23
2022-08-09T09:59:21.359Z,31.07
2022-08-09T10:00:37.050Z,30.92
2022-08-09T10:01:40.461Z,30.91
2022-08-09T10:02:44.826Z,31.11
2022-08-09T10:03:56.506Z,30.53
2022-08-09T10:05:10.772Z,30.31
2022-08-09T10:06:28.253Z,30.77
2022-08-09T10:07:35.457Z,30.81
2022-08-09T10:09:30.013Z,31.24
2022-08-09T10:10:34.241Z,31.23
2022-08-09T10:11:54.335Z,31.27
2022-08-09T10:13:42.980Z,30.58
2022-08-09T10:14:52.108Z,31.28
2022-08-09T10:16:09.742Z,31.53
2022-08-09T10:18:54.317Z,30.82
2022-08-09T10:19:57.139Z,31.18
2022-08-09T10:21:01.160Z,30.21
2022-08-09T10:22:06.857Z,30.7
2022-08-09T10:23:09.444Z,30.72
2022-08-09T10:24:25.482Z,30.76
2022-08-09T10:26:04.763Z,31.07
2022-08-09T10:27:17.039Z,31.26
2022-08-09T10:28:39.852Z,30.64
2022-08-09T10:30:16.485Z,30.25
2022-08-09T10:32:40.037Z,30.58
2022-08-09T10:34:09.359Z,31.28
2022-08-09T10:35:37.344Z,31.44
2022-08-09T10:36:42.152Z,31.78
2022-08-09T10:37:43.865Z,32.15
2022-08-09T10:38:55.219Z,32.2
2022-08-09T10:40:01.930Z,32.06
2022-08-09T10:41:03.954Z,31.67
2022-08-09T10:42:05.697Z,31.65
2022-08-09T10:43:08.106Z,31.29
2022-08-09T10:44:10.584Z,31.14
2022-08-09T10:45:15.742Z,31.32
2022-08-09T10:46:22.188Z,31.43
2022-08-09T10:48:13.531Z,31.52
2022-08-09T10:49:42.263Z,31.78
2022-08-09T10:50:56.042Z,32.2
2022-08-09T10:51:58.337Z,32.77
2022-08-09T10:53:00.286Z,32.65
2022-08-09T10:54:02.164Z,32.47
2022-08-09T10:55:06.680Z,32.02
2022-08-09T10:56:08.386Z,31.88
2022-08-09T10:57:18.698Z,32.18
2022-08-09T10:58:25.496Z,32.14
2022-08-09T10:59:30.852Z,31.79
2022-08-09T11:01:11.355Z,32.28
2022-08-09T11:04:57.464Z,32.59
2022-08-09T11:06:01.785Z,32.76
2022-08-09T11:07:04.938Z,32.56
2022-08-09T11:08:06.541Z,32.4
2022-08-09T11:09:15.707Z,32.65
2022-08-09T11:10:18.880Z,32.17
2022-08-09T11:11:32.043Z,32.28
2022-08-09T11:12:52.940Z,32.84
2022-08-09T11:13:56.117Z,32.27
2022-08-09T11:14:58.352Z,32.84
2022-08-09T11:16:05.054Z,32.94
2022-08-09T11:17:13.026Z,33.03
2022-08-09T11:18:24.553Z,33.26
2022-08-09T11:20:08.323Z,33.31
2022-08-09T11:21:28.914Z,34.34
2022-08-09T11:22:58.996Z,34.64
2022-08-09T11:24:13.374Z,33.78
2022-08-09T11:25:14.896Z,34
2022-08-09T11:26:17.419Z,34.11
2022-08-09T11:28:03.271Z,34.06
2022-08-09T11:30:21.899Z,35.33
2022-08-09T11:31:43.234Z,36.13
2022-08-09T11:33:02.164Z,36.67
2022-08-09T11:34:10.950Z,35.46
2022-08-09T11:35:16.544Z,35.66
2022-08-09T11:36:38.436Z,36.17
2022-08-09T11:37:43.219Z,36.29
2022-08-09T11:38:56.562Z,36.65
2022-08-09T11:39:58.146Z,37.12
2022-08-09T11:41:09.285Z,36.7
2022-08-09T11:42:17.233Z,37.09
2022-08-09T11:43:23.089Z,36.88
2022-08-09T11:44:24.668Z,36.76
2022-08-09T11:45:38.011Z,36.36
2022-08-09T11:46:45.397Z,35.73
2022-08-09T11:47:46.854Z,35.94
2022-08-09T11:48:48.399Z,35.17
2022-08-09T11:50:52.863Z,34.49
2022-08-09T11:55:05.118Z,37.07
2022-08-09T11:56:08.789Z,36.44
2022-08-09T11:57:28.530Z,36.82
2022-08-09T11:59:15.046Z,35.85
2022-08-09T12:00:18.717Z,36.19
2022-08-09T12:01:37.980Z,36.68
2022-08-09T12:03:56.490Z,35.85
2022-08-09T12:05:07.295Z,36.41
2022-08-09T12:06:31.958Z,35.89
2022-08-09T12:07:41.766Z,36.41
2022-08-09T12:08:44.287Z,37.12
2022-08-09T12:09:50.435Z,35.41
2022-08-09T12:10:54.032Z,34.75
2022-08-09T12:12:02.890Z,34.81
2022-08-09T12:14:08.779Z,35.16
2022-08-09T12:16:05.783Z,35.62
2022-08-09T12:17:44.679Z,35.39
2022-08-09T12:18:54.857Z,35.3
2022-08-09T12:19:59.922Z,34.91
2022-08-09T12:21:02.634Z,35.92
2022-08-09T12:22:29.286Z,36.51
2022-08-09T12:23:47.754Z,36.03
2022-08-09T12:25:11.744Z,36.62
2022-08-09T12:26:19.447Z,37.24
2022-08-09T12:29:01.038Z,36.99
2022-08-09T12:31:58.377Z,38.27
2022-08-09T12:33:11.020Z,37.41
2022-08-09T12:35:02.842Z,37.5
2022-08-09T12:36:27.865Z,37.12
2022-08-09T12:37:44.377Z,37.82
2022-08-09T12:39:04.340Z,38.75
2022-08-09T12:40:16.058Z,39.38
2022-08-09T12:41:21.400Z,39.36
2022-08-09T12:42:22.915Z,38.9
2022-08-09T12:44:04.558Z,38.95
2022-08-09T12:45:33.013Z,37.39
2022-08-09T12:47:06.296Z,38.4
2022-08-09T12:48:28.048Z,38.1
2022-08-09T12:49:53.038Z,38.35
2022-08-09T12:51:10.843Z,38.64
2022-08-09T12:53:18.473Z,39.49
2022-08-09T12:55:03.361Z,39.45
2022-08-09T12:58:00.302Z,39.66
2022-08-09T12:59:02.035Z,39.7
2022-08-09T13:00:10.838Z,38.95
2022-08-09T13:01:28.219Z,37.9
2022-08-09T13:02:39.484Z,37.25
2022-08-09T13:03:57.329Z,37.25
2022-08-09T13:05:05.151Z,37.9
2022-08-09T13:06:14.880Z,37.8
2022-08-09T13:07:50.540Z,37.26
2022-08-09T13:09:01.032Z,36.9
2022-08-09T13:10:08.319Z,36.83
2022-08-09T13:11:23.417Z,36.55
2022-08-09T13:12:28.634Z,37.1
2022-08-09T13:13:37.918Z,37.35
2022-08-09T13:15:51.487Z,37.42
2022-08-09T13:17:10.301Z,37.93
2022-08-09T13:19:18.461Z,37.15
2022-08-09T13:20:23.202Z,37.43
2022-08-09T13:24:06.209Z,37.41
2022-08-09T13:26:00.205Z,37.27
2022-08-09T13:27:04.779Z,35.65
2022-08-09T13:28:10.084Z,35.73
2022-08-09T13:29:42.197Z,35.94
2022-08-09T13:33:35.843Z,36.22
2022-08-09T13:34:55.977Z,34.94
2022-08-09T13:36:23.548Z,35.04
2022-08-09T13:37:51.511Z,34.57
2022-08-09T13:38:59.053Z,34.75
2022-08-09T13:42:58.995Z,35.31
2022-08-09T13:44:05.422Z,35.61
2022-08-09T13:45:12.330Z,36.26
2022-08-09T13:46:45.034Z,35.98
2022-08-09T13:48:50.046Z,38.28
2022-08-09T13:49:56.626Z,38.6
2022-08-09T13:51:03.294Z,38.49
2022-08-09T13:52:04.807Z,38.46
2022-08-09T13:53:11.527Z,37.14
2022-08-09T13:54:13.748Z,37.43
2022-08-09T13:55:15.249Z,37.79
2022-08-09T13:56:22.456Z,38.2
2022-08-09T13:57:36.154Z,38.05
2022-08-09T13:58:42.093Z,38.01
2022-08-09T13:59:43.597Z,37.47
2022-08-09T14:00:48.387Z,38.17
2022-08-09T14:02:01.393Z,38.3
2022-08-09T14:03:17.253Z,39.02
2022-08-09T14:05:13.564Z,39.96
2022-08-09T14:07:11.814Z,39.72
2022-08-09T14:08:13.988Z,39.09
2022-08-09T14:09:20.245Z,39.67
2022-08-09T14:10:29.067Z,39.66
2022-08-09T14:11:54.640Z,40.68
2022-08-09T14:12:56.440Z,41.39
2022-08-09T14:14:16.806Z,41.41
2022-08-09T14:16:06.434Z,41.48
2022-08-09T14:17:14.969Z,40.34
2022-08-09T14:18:27.560Z,42.05
2022-08-09T14:19:34.088Z,42.15
2022-08-09T14:20:35.588Z,42.33
2022-08-09T14:21:40.290Z,41.93
2022-08-09T14:22:41.893Z,42.49
2022-08-09T14:23:54.286Z,41.58
2022-08-09T14:25:02.781Z,41.38
2022-08-09T14:26:05.774Z,41.3
2022-08-09T14:27:14.991Z,40.91
2022-08-09T14:28:22.366Z,40.61
2022-08-09T14:30:04.485Z,41.29
2022-08-09T14:31:50.406Z,41.02
2022-08-09T14:32:56.502Z,42.58
2022-08-09T14:33:59.299Z,42.37
2022-08-09T14:35:10.440Z,42.04
2022-08-09T14:36:20.083Z,43.59
2022-08-09T14:37:28.079Z,42.91
2022-08-09T14:39:08.804Z,42.49
2022-08-09T14:40:11.058Z,43.95
2022-08-09T14:41:20.706Z,42.65
2022-08-09T14:42:43.637Z,41.74
2022-08-09T14:43:53.502Z,42.49
2022-08-09T14:44:59.707Z,41.66
2022-08-09T14:46:40.826Z,42.25
2022-08-09T14:48:50.862Z,42.01
2022-08-09T14:50:01.711Z,42.31
2022-08-09T14:51:04.445Z,42.89
2022-08-09T14:52:10.239Z,44.2
2022-08-09T14:53:12.303Z,43.74
2022-08-09T14:54:14.895Z,42.9
2022-08-09T14:55:20.111Z,42.25
2022-08-09T14:56:22.807Z,43.93
2022-08-09T14:57:31.964Z,43.72
2022-08-09T14:58:46.126Z,43.15
2022-08-09T14:59:48.711Z,42.62
2022-08-09T15:00:51.921Z,42.38
2022-08-09T15:01:58.939Z,39.84
2022-08-09T15:03:00.402Z,39.91
2022-08-09T15:04:02.127Z,39.56
2022-08-09T15:05:03.636Z,38.78
2022-08-09T15:06:08.183Z,38.26
2022-08-09T15:07:10.390Z,38.23
2022-08-09T15:08:12.150Z,38.28
2022-08-09T15:09:30.587Z,38.66
2022-08-09T15:11:15.510Z,37.92
2022-08-09T15:12:18.017Z,38.14
2022-08-09T15:13:21.811Z,37.41
2022-08-09T15:14:24.994Z,38.44
2022-08-09T15:15:39.092Z,38.42
2022-08-09T15:16:45.039Z,39.75
2022-08-09T15:17:52.679Z,40.29
2022-08-09T15:18:54.837Z,40
2022-08-09T15:21:54.444Z,39.39
2022-08-09T15:23:56.312Z,38.91
2022-08-09T15:25:33.557Z,38.32
2022-08-09T15:26:45.263Z,37.93
2022-08-09T15:27:54.930Z,37.37
2022-08-09T15:29:04.599Z,37.7
2022-08-09T15:30:49.029Z,38.68
2022-08-09T15:32:28.339Z,39.9
2022-08-09T15:33:57.667Z,39.07
2022-08-09T15:35:40.543Z,39.28
2022-08-09T15:37:07.196Z,40.06
2022-08-09T15:38:15.699Z,40.49
2022-08-09T15:39:19.529Z,39.68
2022-08-09T15:40:22.161Z,38.77
2022-08-09T15:41:34.903Z,38.08
2022-08-09T15:42:36.466Z,38.18
2022-08-09T15:43:43.975Z,37.7
2022-08-09T15:44:45.528Z,37.03
2022-08-09T15:45:51.561Z,36.39
2022-08-09T15:47:45.739Z,36.05
2022-08-09T15:49:31.598Z,36.19
2022-08-09T15:50:33.343Z,36.88
2022-08-09T15:52:01.773Z,37.22
2022-08-09T15:53:18.557Z,38.17
2022-08-09T15:55:53.903Z,38.34
2022-08-09T15:57:34.877Z,38.62
2022-08-09T15:58:55.027Z,38.82
2022-08-09T15:59:56.526Z,38.74
2022-08-09T16:00:59.045Z,38.9
2022-08-09T16:02:01.555Z,39.25
2022-08-09T16:03:03.057Z,38.37
2022-08-09T16:04:04.607Z,38.3
2022-08-09T16:05:06.855Z,38.8
2022-08-09T16:06:16.235Z,38.53
2022-08-09T16:07:45.901Z,38.17
2022-08-09T16:08:52.533Z,38.54
2022-08-09T16:10:02.403Z,38.88
2022-08-09T16:11:06.864Z,39.43
2022-08-09T16:12:11.252Z,39.32
2022-08-09T16:13:18.868Z,39.6
2022-08-09T16:16:04.259Z,39.23
2022-08-09T16:17:21.970Z,39.27
2022-08-09T16:18:23.720Z,38.87
2022-08-09T16:19:25.222Z,38.67
2022-08-09T16:21:04.848Z,39.08
2022-08-09T16:22:07.711Z,39.24
2022-08-09T16:23:19.794Z,39.64
2022-08-09T16:24:30.447Z,40.16
2022-08-09T16:25:39.765Z,39.72
2022-08-09T16:26:42.366Z,39.26
2022-08-09T16:27:51.447Z,39.61
2022-08-09T16:28:54.538Z,39.62
2022-08-09T16:29:58.577Z,39.25
2022-08-09T16:31:15.963Z,39.29
2022-08-09T16:32:33.363Z,39.07
2022-08-09T16:33:38.718Z,37.82
2022-08-09T16:34:44.962Z,38.87
2022-08-09T16:36:03.166Z,39.79
2022-08-09T16:37:19.968Z,40.04
2022-08-09T16:39:00.730Z,40.13
2022-08-09T16:40:05.083Z,40.8
2022-08-09T16:41:07.948Z,40.45
2022-08-09T16:42:25.943Z,40.81
2022-08-09T16:43:28.468Z,39.74
2022-08-09T16:44:31.578Z,39.86
2022-08-09T16:45:33.724Z,40.51
2022-08-09T16:46:35.337Z,41.13
2022-08-09T16:48:37.053Z,40.88
2022-08-09T16:50:30.840Z,40.59
2022-08-09T16:51:39.550Z,39.78
2022-08-09T16:52:44.762Z,40.53
2022-08-09T16:54:16.342Z,39.72
2022-08-09T16:55:44.509Z,39.05
2022-08-09T16:57:11.315Z,39.42
2022-08-09T16:58:16.438Z,38.13
2022-08-09T16:59:18.333Z,38.64
2022-08-09T17:00:20.062Z,38
2022-08-09T17:01:23.710Z,37.36
2022-08-09T17:02:26.953Z,36.84
2022-08-09T17:03:28.727Z,36.93
2022-08-09T17:04:31.541Z,36.18
2022-08-09T17:06:03.245Z,35.9
2022-08-09T17:08:41.800Z,36.35
2022-08-09T17:10:47.126Z,36.07
2022-08-09T17:11:53.388Z,35.34
2022-08-09T17:12:55.860Z,35.45
2022-08-09T17:14:01.010Z,35.24
2022-08-09T17:15:18.085Z,35.41
2022-08-09T17:17:03.944Z,35.18
2022-08-09T17:18:31.909Z,35.17
2022-08-09T17:19:47.065Z,35
2022-08-09T17:21:47.690Z,35.45
2022-08-09T17:22:56.960Z,35.76
2022-08-09T17:24:21.490Z,35.79
2022-08-09T17:25:32.313Z,36.06
2022-08-09T17:26:38.177Z,36.48
2022-08-09T17:27:40.083Z,35.37
2022-08-09T17:28:56.469Z,35.76
2022-08-09T17:30:04.630Z,35.72
2022-08-09T17:31:15.981Z,35.19
2022-08-09T17:32:23.893Z,35.22
2022-08-09T17:33:39.931Z,35.01
2022-08-09T17:35:01.882Z,34.83
2022-08-09T17:36:15.725Z,34.24
2022-08-09T17:37:19.348Z,34.18
2022-08-09T17:38:30.894Z,33.73
2022-08-09T17:39:52.489Z,33.99
2022-08-09T17:40:57.135Z,34.17
2022-08-09T17:42:01.234Z,33.84
2022-08-09T17:43:10.969Z,33.95
2022-08-09T17:44:42.684Z,34.05
2022-08-09T17:46:02.319Z,33.69
2022-08-09T17:47:10.875Z,33.64
2022-08-09T17:48:12.485Z,33.67
2022-08-09T17:49:18.578Z,33.38
2022-08-09T17:50:25.241Z,33
2022-08-09T17:51:39.278Z,33.24
2022-08-09T17:52:42.584Z,33.03
2022-08-09T17:53:54.889Z,33.13
2022-08-09T17:54:57.357Z,32.98
2022-08-09T17:56:06.096Z,32.81
2022-08-09T17:57:17.328Z,33.08
2022-08-09T17:59:12.042Z,33.24
2022-08-09T18:00:20.731Z,32.87
2022-08-09T18:01:58.264Z,33.41
2022-08-09T18:03:32.884Z,33.12
2022-08-09T18:04:36.219Z,32.43
2022-08-09T18:05:43.785Z,32.81
2022-08-09T18:06:49.879Z,33
2022-08-09T18:07:57.422Z,32.94
2022-08-09T18:09:00.137Z,33.09
2022-08-09T18:10:03.921Z,33.06
2022-08-09T18:11:07.017Z,32.55
2022-08-09T18:12:19.820Z,32.12
2022-08-09T18:14:49.550Z,32.21
2022-08-09T18:16:05.731Z,32.83
2022-08-09T18:17:10.745Z,32.59
2022-08-09T18:20:57.679Z,32.18
2022-08-09T18:22:25.159Z,31.6
2022-08-09T18:24:09.020Z,32.2
2022-08-09T18:25:16.646Z,31.99
2022-08-09T18:26:54.484Z,31.94
2022-08-09T18:28:02.942Z,31.64
2022-08-09T18:31:51.811Z,32.16
2022-08-09T18:32:58.158Z,31.8
2022-08-09T18:33:59.653Z,31.53
2022-08-09T18:35:01.577Z,31.72
2022-08-09T18:36:03.033Z,31.47
2022-08-09T18:37:05.481Z,31.55
2022-08-09T18:39:01.154Z,31.45
2022-08-09T18:40:04.811Z,31.21
2022-08-09T18:41:07.947Z,30.98
2022-08-09T18:42:10.797Z,31.12
2022-08-09T18:43:13.498Z,31.17
2022-08-09T18:44:17.916Z,30.69
2022-08-09T18:46:45.592Z,31
2022-08-09T18:48:17.666Z,31.04
2022-08-09T18:49:21.457Z,31.35
2022-08-09T18:50:25.627Z,31.28
2022-08-09T18:51:38.188Z,31.29
2022-08-09T18:53:00.674Z,30.7
2022-08-09T18:54:06.540Z,31
2022-08-09T18:55:45.810Z,30.79
2022-08-09T18:57:07.217Z,30.7
2022-08-09T18:58:13.911Z,30.58
2022-08-09T18:59:37.093Z,30.13
2022-08-09T19:01:04.790Z,30.36
2022-08-09T19:02:06.454Z,30.24
2022-08-09T19:03:08.434Z,30.14
2022-08-09T19:04:11.191Z,30.43
2022-08-09T19:05:15.079Z,30.05
2022-08-09T19:07:06.652Z,30.18
2022-08-09T19:08:11.991Z,30.4
2022-08-09T19:09:34.259Z,30.53
2022-08-09T19:11:19.242Z,30.66
2022-08-09T19:12:39.735Z,30.42
2022-08-09T19:14:24.286Z,30.52
2022-08-09T19:15:31.041Z,30.57
2022-08-09T19:16:36.175Z,30.37
2022-08-09T19:17:55.242Z,30.45
2022-08-09T19:19:02.155Z,30.02
2022-08-09T19:20:42.544Z,29.86
2022-08-09T19:22:05.274Z,30.06
2022-08-09T19:23:08.962Z,30.19
2022-08-09T19:26:01.696Z,30.09
2022-08-09T19:27:08.221Z,30
2022-08-09T19:28:12.963Z,29.76
2022-08-09T19:29:18.132Z,29.74
2022-08-09T19:30:27.811Z,29.55
2022-08-09T19:31:43.718Z,29.81
2022-08-09T19:32:53.085Z,29.93
2022-08-09T19:33:56.675Z,29.48
2022-08-09T19:34:59.460Z,29.76
2022-08-09T19:36:01.139Z,29.32
2022-08-09T19:37:02.611Z,29.54
2022-08-09T19:38:04.135Z,29.55
2022-08-09T19:39:05.917Z,29.78
2022-08-09T19:40:07.893Z,29.85
2022-08-09T19:41:09.750Z,29.63
2022-08-09T19:42:14.853Z,29.88
2022-08-09T19:43:58.382Z,29.72
2022-08-09T19:45:05.419Z,29.06
2022-08-09T19:46:06.948Z,29.63
2022-08-09T19:47:15.994Z,29.42
2022-08-09T19:49:01.186Z,29.2
2022-08-09T19:51:56.130Z,29.59
2022-08-09T19:52:58.590Z,29.86
2022-08-09T19:54:00.044Z,29.87
2022-08-09T19:55:01.544Z,29.79
2022-08-09T19:56:06.000Z,29.5
2022-08-09T19:57:16.696Z,29.06
2022-08-09T19:58:29.856Z,29.05
2022-08-09T19:59:40.702Z,29
2022-08-09T20:01:11.236Z,29.03
2022-08-09T20:02:15.731Z,28.82
2022-08-09T20:05:46.220Z,28.72
2022-08-09T20:06:53.735Z,28.61
2022-08-09T20:07:57.315Z,28.65
2022-08-09T20:09:07.504Z,28.23
2022-08-09T20:10:17.433Z,27.7
2022-08-09T20:11:43.224Z,27.78
2022-08-09T20:12:54.679Z,27.54
2022-08-09T20:13:56.694Z,27.55
2022-08-09T20:15:00.104Z,27.28
2022-08-09T20:16:32.699Z,27.32
2022-08-09T20:17:56.146Z,27.18
2022-08-09T20:19:03.875Z,27.1
2022-08-09T20:20:56.288Z,26.93
2022-08-09T20:21:59.785Z,26.92
2022-08-09T20:23:02.109Z,26.85
2022-08-09T20:24:03.700Z,26.89
2022-08-09T20:25:05.220Z,26.81
2022-08-09T20:26:06.767Z,26.69
2022-08-09T20:27:11.543Z,26.64
2022-08-09T20:28:24.558Z,26.68
2022-08-09T20:29:51.150Z,26.65
2022-08-09T20:30:53.505Z,26.63
2022-08-09T20:32:17.202Z,26.6
2022-08-09T20:33:38.807Z,26.98
2022-08-09T20:34:45.999Z,27.23
2022-08-09T20:35:50.619Z,27.16
2022-08-09T20:36:54.048Z,26.81
2022-08-09T20:38:19.220Z,26.99
2022-08-09T20:41:15.141Z,27.08
2022-08-09T20:42:17.051Z,26.95
2022-08-09T20:43:24.504Z,26.87
2022-08-09T20:44:27.426Z,26.68
2022-08-09T20:45:58.020Z,26.5
2022-08-09T20:47:48.031Z,26.49
2022-08-09T20:48:50.299Z,26.57
2022-08-09T20:49:51.810Z,26.43
2022-08-09T20:50:57.625Z,26.24
2022-08-09T20:52:00.385Z,26.17
2022-08-09T20:53:03.598Z,26.14
2022-08-09T20:54:05.246Z,26.12
2022-08-09T20:55:18.165Z,26.18
2022-08-09T20:56:21.934Z,26.15
2022-08-09T20:57:32.011Z,26.26
2022-08-09T20:58:34.083Z,26.06
2022-08-09T20:59:50.455Z,26.03
2022-08-09T21:01:49.747Z,25.93
2022-08-09T21:02:55.425Z,25.88
2022-08-09T21:04:08.642Z,25.8
2022-08-09T21:07:11.097Z,25.72
2022-08-09T21:08:15.598Z,25.78
2022-08-09T21:09:42.151Z,25.7
2022-08-09T21:10:59.925Z,25.75
2022-08-09T21:13:07.039Z,25.82
2022-08-09T21:14:17.333Z,25.79
2022-08-09T21:15:23.556Z,25.9
2022-08-09T21:17:01.589Z,25.63
2022-08-09T21:20:04.953Z,25.55
2022-08-09T21:21:46.271Z,25.56
2022-08-09T21:22:59.387Z,25.46
2022-08-09T21:24:02.508Z,25.49
2022-08-09T21:25:04.068Z,25.3
2022-08-09T21:26:06.566Z,25.25
2022-08-09T21:27:10.277Z,25.11
2022-08-09T21:28:56.871Z,25.08
2022-08-09T21:29:58.898Z,25.15
2022-08-09T21:31:13.851Z,25.17
2022-08-09T21:32:33.221Z,25.21
2022-08-09T21:33:37.930Z,25.15
2022-08-09T21:34:45.020Z,25.07
2022-08-09T21:35:50.926Z,25.11
2022-08-09T21:36:55.494Z,25.09
2022-08-09T21:37:59.657Z,25.05
2022-08-09T21:39:04.263Z,24.96
2022-08-09T21:40:08.240Z,24.92
2022-08-09T21:42:00.550Z,24.85
2022-08-09T21:43:12.407Z,24.83
2022-08-09T21:44:59.432Z,24.79
2022-08-09T21:46:00.912Z,24.73
2022-08-09T21:47:03.091Z,24.57
2022-08-09T21:48:05.328Z,24.35
2022-08-09T21:49:08.365Z,24.39
2022-08-09T21:50:09.809Z,24.29
2022-08-09T21:51:43.687Z,24.28
2022-08-09T21:52:45.782Z,24.2
2022-08-09T21:53:47.237Z,24.15
2022-08-09T21:54:49.795Z,24.05
2022-08-09T21:56:06.260Z,23.99
2022-08-09T21:57:59.372Z,24.22
2022-08-09T21:59:01.944Z,24.4
2022-08-09T22:00:03.672Z,24.59
2022-08-09T22:01:05.167Z,24.7
2022-08-09T22:03:04.554Z,24.65
2022-08-09T22:04:07.923Z,24.6
2022-08-09T22:05:16.973Z,24.54
2022-08-09T22:06:38.771Z,24.55
2022-08-09T22:08:00.136Z,24.55
2022-08-09T22:09:03.256Z,24.55
2022-08-09T22:10:04.861Z,24.56
2022-08-09T22:11:50.759Z,24.48
2022-08-09T22:13:33.935Z,24.62
2022-08-09T22:14:37.992Z,24.55
2022-08-09T22:15:39.981Z,24.46
2022-08-09T22:16:41.653Z,24.3
2022-08-09T22:17:46.053Z,24.33
2022-08-09T22:18:54.694Z,24.36
2022-08-09T22:19:58.217Z,24.43
2022-08-09T22:21:02.364Z,24.43
2022-08-09T22:22:25.601Z,24.43
2022-08-09T22:23:35.263Z,24.44
2022-08-09T22:26:04.843Z,24.41
2022-08-09T22:27:39.210Z,24.56
2022-08-09T22:28:47.408Z,24.4
2022-08-09T22:29:55.922Z,24.49
2022-08-09T22:30:58.960Z,24.29
2022-08-09T22:32:00.438Z,24.26
2022-08-09T22:33:01.965Z,24.28
2022-08-09T22:34:14.640Z,24.4
2022-08-09T22:36:00.555Z,24.3
2022-08-09T22:37:05.415Z,24.44
2022-08-09T22:38:14.928Z,24.59
2022-08-09T22:39:20.609Z,24.45
2022-08-09T22:41:00.579Z,24.46
2022-08-09T22:42:02.295Z,24.43
2022-08-09T22:43:08.599Z,24.44
2022-08-09T22:48:05.423Z,24.35
2022-08-09T22:49:40.447Z,24.76
2022-08-09T22:50:42.736Z,24.73
2022-08-09T22:51:56.460Z,24.53
2022-08-09T22:52:59.176Z,24.35
2022-08-09T22:54:04.445Z,24.27
2022-08-09T22:55:21.996Z,24.23
2022-08-09T22:56:31.675Z,24.11
2022-08-09T22:57:36.111Z,24.21
2022-08-09T22:59:05.648Z,24.24
2022-08-09T23:01:01.026Z,24.01
2022-08-09T23:02:04.585Z,24.02
2022-08-09T23:03:12.492Z,24.09
2022-08-09T23:04:32.665Z,24.09
2022-08-09T23:05:39.287Z,24.24
2022-08-09T23:06:47.533Z,24.14
2022-08-09T23:08:21.665Z,24.04
2022-08-09T23:09:31.470Z,24.13
2022-08-09T23:10:41.661Z,23.97
2022-08-09T23:11:45.981Z,23.92
2022-08-09T23:12:47.435Z,23.72
2022-08-09T23:13:48.899Z,23.76
2022-08-09T23:14:53.817Z,23.96
2022-08-09T23:16:02.589Z,23.81
2022-08-09T23:17:05.211Z,23.63
2022-08-09T23:18:06.723Z,23.62
2022-08-09T23:19:08.336Z,23.63
2022-08-09T23:20:09.807Z,23.63
2022-08-09T23:21:11.323Z,23.62
2022-08-09T23:22:13.348Z,23.55
2022-08-09T23:23:14.805Z,23.52
2022-08-09T23:24:16.340Z,23.51
2022-08-09T23:25:17.830Z,23.39
2022-08-09T23:26:19.332Z,23.39
2022-08-09T23:27:20.833Z,23.37
2022-08-09T23:28:22.381Z,23.36
2022-08-09T23:29:24.043Z,23.44
2022-08-09T23:30:32.794Z,23.25
2022-08-09T23:31:34.340Z,23.25
2022-08-09T23:32:35.839Z,23.25
2022-08-09T23:33:37.381Z,23.25
2022-08-09T23:34:38.885Z,23.17
2022-08-09T23:36:05.340Z,23.24
2022-08-09T23:37:08.956Z,23.32
2022-08-09T23:38:10.404Z,23.23
2022-08-09T23:39:11.974Z,23.17
2022-08-09T23:40:13.788Z,23.14
2022-08-09T23:41:28.143Z,23.18
2022-08-09T23:42:31.317Z,23.03
2022-08-09T23:43:33.546Z,23.18
2022-08-09T23:44:34.995Z,22.96
2022-08-09T23:45:38.385Z,23.08
2022-08-09T23:46:40.144Z,23.05
2022-08-09T23:47:41.653Z,22.96
2022-08-09T23:48:43.178Z,22.78
2022-08-09T23:49:44.700Z,22.96
2022-08-09T23:50:46.168Z,23.02
2022-08-09T23:51:47.682Z,22.98
2022-08-09T23:52:49.246Z,23.26
2022-08-09T23:53:52.426Z,23.27
2022-08-09T23:55:04.925Z,23.43
2022-08-09T23:56:07.127Z,23.3
2022-08-09T23:57:10.154Z,23.25
2022-08-09T23:58:25.617Z,23.19
2022-08-09T23:59:31.414Z,23.23
